Time;durP1;ratioP1;P1;durP2;ratioP2;P2;SDS_P1;SDS_P2;PMS_P1;PMS_P2;Temp;Humidity;BMP_temperature;BMP_pressure;BME280_temperature;BME280_humidity;BME280_pressure;Samples;Min_cycle;Max_cycle;Signal;HPM_P1;HPM_P2
2021/07/02 00:01:50;;;;;;;;;;;;;;;16.96;89.68;98730.75;5073412;28;794;-60
2021/07/02 00:04:17;;;;;;;;;;;;;;;17.09;89.15;98759.25;5073205;28;834;-60
2021/07/02 00:06:42;;;;;;;;;;;;;;;17.18;88.90;98805.88;5073319;28;807;-60
2021/07/02 00:09:09;;;;;;;;;;;;;;;17.08;88.52;98821.88;5073535;28;817;-61
2021/07/02 00:11:36;;;;;;;;;;;;;;;16.93;88.90;98844.09;5073686;28;767;-61
2021/07/02 00:14:04;;;;;;;;;;;;;;;16.87;89.09;98871.09;5072826;28;1906;-61
2021/07/02 00:16:33;;;;;;;;;;;;;;;16.86;89.63;98871.59;5073173;28;865;-61
2021/07/02 00:19:01;;;;;;;;;;;;;;;16.86;89.51;98869.56;5072835;28;904;-61
2021/07/02 00:21:28;;;;;;;;;;;;;;;16.88;89.56;98891.44;5072866;28;862;-62
2021/07/02 00:23:54;;;;;;;;;;;;;;;16.94;89.70;98887.53;5072576;28;810;-61
2021/07/02 00:26:21;;;;;;;;;;;;;;;17.00;89.59;98884.09;5072830;28;869;-61
2021/07/02 00:28:48;;;;;;;;;;;;;;;17.00;89.30;98895.28;5072782;28;858;-61
2021/07/02 00:31:14;;;;;;;;;;;;;;;17.07;89.52;98901.31;5054729;28;1455;-61
2021/07/02 00:33:41;;;;;;;;;;;;;;;17.10;89.39;98894.00;5072715;28;861;-61
2021/07/02 00:36:07;;;;;;;;;;;;;;;17.14;89.26;98909.34;5072625;28;1945;-61
2021/07/02 00:38:34;;;;;;;;;;;;;;;17.08;89.01;98930.75;5072646;28;894;-60
2021/07/02 00:41:00;;;;;;;;;;;;;;;17.01;89.17;98914.34;5072696;28;798;-60
2021/07/02 00:43:26;;;;;;;;;;;;;;;16.98;89.04;98903.34;5072637;28;897;-61
2021/07/02 00:45:53;;;;;;;;;;;;;;;16.96;89.15;98900.22;5071953;28;815;-61
2021/07/02 00:48:19;;;;;;;;;;;;;;;16.94;89.24;98895.91;5072334;28;878;-61
2021/07/02 00:50:46;;;;;;;;;;;;;;;16.98;89.17;98883.78;5072211;28;774;-60
2021/07/02 00:53:12;;;;;;;;;;;;;;;16.97;89.21;98883.03;5072090;28;810;-60
2021/07/02 00:55:39;;;;;;;;;;;;;;;16.91;89.19;98882.88;5072044;28;1957;-60
2021/07/02 00:58:05;;;;;;;;;;;;;;;16.88;89.24;98886.63;5072025;28;799;-60
2021/07/02 01:00:32;;;;;;;;;;;;;;;16.91;89.38;98879.31;5072127;28;850;-60
2021/07/02 01:02:59;;;;;;;;;;;;;;;16.94;89.27;98870.78;5072048;28;862;-60
2021/07/02 01:05:25;;;;;;;;;;;;;;;16.95;89.07;98863.19;5071955;28;910;-61
2021/07/02 01:07:52;;;;;;;;;;;;;;;16.94;89.15;98851.25;5071901;28;865;-60
2021/07/02 01:10:19;;;;;;;;;;;;;;;16.90;88.96;98855.47;5071905;28;873;-60
2021/07/02 01:12:45;;;;;;;;;;;;;;;16.79;88.99;98866.28;5071923;28;1028;-60
2021/07/02 01:15:22;;;;;;;;;;;;;;;16.67;89.43;98868.78;5071515;28;1898;-59
2021/07/02 01:17:48;;;;;;;;;;;;;;;16.60;89.58;98857.16;5071844;28;790;-60
2021/07/02 01:20:15;;;;;;;;;;;;;;;16.57;89.71;98864.44;5071850;28;914;-60
2021/07/02 01:22:42;;;;;;;;;;;;;;;16.51;89.47;98855.16;5071905;28;901;-59
2021/07/02 01:25:08;;;;;;;;;;;;;;;16.47;89.56;98860.91;5071697;28;924;-60
2021/07/02 01:27:36;;;;;;;;;;;;;;;16.41;89.84;98857.19;5071723;28;834;-59
2021/07/02 01:30:02;;;;;;;;;;;;;;;16.37;90.00;98870.50;5071745;28;874;-60
2021/07/02 01:32:29;;;;;;;;;;;;;;;16.31;89.79;98875.94;5071834;28;795;-60
2021/07/02 01:34:55;;;;;;;;;;;;;;;16.21;89.61;98877.16;5071789;28;1882;-60
2021/07/02 01:37:22;;;;;;;;;;;;;;;16.08;89.56;98874.50;5071811;28;819;-60
2021/07/02 01:39:48;;;;;;;;;;;;;;;16.04;90.00;98873.88;5072331;28;751;-59
2021/07/02 01:42:15;;;;;;;;;;;;;;;16.02;89.87;98881.16;5071577;28;862;-60
2021/07/02 01:44:41;;;;;;;;;;;;;;;15.95;89.87;98879.44;5071765;28;917;-59
2021/07/02 01:47:08;;;;;;;;;;;;;;;15.89;89.97;98875.72;5071398;28;945;-59
2021/07/02 01:49:35;;;;;;;;;;;;;;;15.79;89.65;98874.13;5071456;28;869;-59
2021/07/02 01:52:01;;;;;;;;;;;;;;;15.72;89.98;98869.63;5071334;28;798;-59
2021/07/02 01:54:27;;;;;;;;;;;;;;;15.70;90.25;98875.66;5071338;28;1881;-59
2021/07/02 01:56:54;;;;;;;;;;;;;;;15.76;90.33;98895.34;5073180;28;826;-59
2021/07/02 01:59:20;;;;;;;;;;;;;;;15.80;90.38;98907.13;5075513;28;897;-59
2021/07/02 02:01:48;;;;;;;;;;;;;;;15.78;90.06;98923.53;5075549;28;862;-59
2021/07/02 02:04:15;;;;;;;;;;;;;;;15.74;89.99;98933.25;5075315;28;854;-59
2021/07/02 02:06:41;;;;;;;;;;;;;;;15.66;90.05;98929.94;5075714;28;845;-59
2021/07/02 02:09:08;;;;;;;;;;;;;;;15.62;90.11;98941.25;5075297;28;807;-59
2021/07/02 02:11:34;;;;;;;;;;;;;;;15.56;90.05;98942.31;5075346;28;810;-59
2021/07/02 02:14:00;;;;;;;;;;;;;;;15.58;90.26;98937.06;5075106;28;1204;-59
2021/07/02 02:16:27;;;;;;;;;;;;;;;15.59;90.46;98933.78;5075203;28;1981;-59
2021/07/02 02:18:53;;;;;;;;;;;;;;;15.65;90.58;98936.75;5075381;28;814;-59
2021/07/02 02:21:20;;;;;;;;;;;;;;;15.74;90.56;98947.19;5075054;28;854;-59
2021/07/02 02:23:46;;;;;;;;;;;;;;;15.79;90.53;98947.38;5075030;28;798;-59
2021/07/02 02:26:13;;;;;;;;;;;;;;;15.82;90.42;98954.81;5074923;28;921;-59
2021/07/02 02:28:39;;;;;;;;;;;;;;;15.89;90.18;98960.09;5074977;28;795;-59
2021/07/02 02:31:06;;;;;;;;;;;;;;;15.92;89.89;98966.78;5074915;28;845;-59
2021/07/02 02:33:32;;;;;;;;;;;;;;;15.96;90.00;98966.59;5074858;28;868;-59
2021/07/02 02:35:59;;;;;;;;;;;;;;;16.01;89.72;98975.16;5074696;28;1953;-59
2021/07/02 02:38:26;;;;;;;;;;;;;;;16.03;89.53;98980.28;5074808;28;802;-58
2021/07/02 02:40:53;;;;;;;;;;;;;;;16.01;89.55;98979.97;5074668;28;882;-58
2021/07/02 02:43:19;;;;;;;;;;;;;;;16.01;89.69;98982.75;5074952;28;857;-58
2021/07/02 02:45:46;;;;;;;;;;;;;;;15.99;89.50;98988.00;5074937;28;815;-58
2021/07/02 02:48:13;;;;;;;;;;;;;;;15.99;89.72;98985.22;5074659;28;906;-58
2021/07/02 02:50:39;;;;;;;;;;;;;;;16.01;89.59;98991.88;5074470;28;890;-58
2021/07/02 02:53:05;;;;;;;;;;;;;;;16.03;89.29;98985.84;5074673;28;838;-58
2021/07/02 02:55:31;;;;;;;;;;;;;;;16.04;89.21;98992.97;5074411;28;1894;-57
2021/07/02 02:57:58;;;;;;;;;;;;;;;16.02;89.48;98998.22;5074409;28;831;-57
2021/07/02 03:00:24;;;;;;;;;;;;;;;15.98;89.38;99003.94;5074303;28;925;-57
2021/07/02 03:02:51;;;;;;;;;;;;;;;15.88;89.15;99003.13;5074333;28;866;-57
2021/07/02 03:05:18;;;;;;;;;;;;;;;15.78;89.21;99006.34;5074332;28;787;-57
2021/07/02 03:07:44;;;;;;;;;;;;;;;15.69;89.64;99010.59;5074008;28;803;-57
2021/07/02 03:10:11;;;;;;;;;;;;;;;15.70;89.91;99014.16;5074192;28;850;-57
2021/07/02 03:12:38;;;;;;;;;;;;;;;15.73;89.80;99016.06;5074456;28;953;-57
2021/07/02 03:15:05;;;;;;;;;;;;;;;15.85;90.11;99026.34;5073834;28;1981;-57
2021/07/02 03:17:32;;;;;;;;;;;;;;;15.95;90.07;99027.16;5074413;28;811;-57
2021/07/02 03:19:58;;;;;;;;;;;;;;;16.04;90.21;99020.81;5073985;28;940;-57
2021/07/02 03:22:25;;;;;;;;;;;;;;;16.09;89.87;99020.25;5073924;28;903;-57
2021/07/02 03:24:52;;;;;;;;;;;;;;;16.16;89.94;99024.75;5073932;28;842;-57
2021/07/02 03:27:18;;;;;;;;;;;;;;;16.24;89.98;99020.44;5073934;28;807;-57
2021/07/02 03:29:45;;;;;;;;;;;;;;;16.45;91.03;99029.94;5056059;28;796;-57
2021/07/02 03:32:11;;;;;;;;;;;;;;;16.86;91.69;99028.63;5055974;28;971;-57
2021/07/02 03:34:41;;;;;;;;;;;;;;;16.97;90.49;99033.75;5073752;28;1953;-57
2021/07/02 03:37:07;;;;;;;;;;;;;;;17.08;90.38;99027.72;5073621;28;945;-57
2021/07/02 03:39:33;;;;;;;;;;;;;;;17.18;90.30;99028.50;5055821;28;1241;-57
2021/07/02 03:42:00;;;;;;;;;;;;;;;17.27;90.42;99028.47;5073633;28;794;-57
2021/07/02 03:44:26;;;;;;;;;;;;;;;17.38;90.42;99025.97;5073783;28;814;-57
2021/07/02 03:46:53;;;;;;;;;;;;;;;17.55;90.04;99032.00;5073716;28;818;-57
2021/07/02 03:49:19;;;;;;;;;;;;;;;17.82;90.28;99036.75;5055721;28;1235;-57
2021/07/02 03:51:46;;;;;;;;;;;;;;;18.02;90.26;99044.59;5074066;28;806;-56
2021/07/02 03:54:13;;;;;;;;;;;;;;;18.17;89.85;99039.88;5073464;28;1890;-57
2021/07/02 03:57:10;;;;;;;;;;;;;;;18.26;89.57;99044.66;5073770;28;842;-57
2021/07/02 03:59:26;;;;;;;;;;;;;;;18.25;89.04;99045.13;5073132;28;1485;-57
2021/07/02 04:01:52;;;;;;;;;;;;;;;18.11;89.12;99041.75;5073202;28;889;-57
2021/07/02 04:04:19;;;;;;;;;;;;;;;18.11;89.59;99033.38;5073072;28;958;-57
2021/07/02 04:06:45;;;;;;;;;;;;;;;18.13;89.30;99047.66;5073125;28;885;-58
2021/07/02 04:09:11;;;;;;;;;;;;;;;18.34;89.39;99036.69;5073072;28;877;-57
2021/07/02 04:11:38;;;;;;;;;;;;;;;18.71;87.02;99031.66;5073046;28;807;-57
2021/07/02 04:14:05;;;;;;;;;;;;;;;19.25;85.42;99031.72;5072922;28;1248;-58
2021/07/02 04:16:32;;;;;;;;;;;;;;;19.78;84.58;99033.69;5072920;28;1977;-58
2021/07/02 04:18:59;;;;;;;;;;;;;;;20.06;82.72;99030.56;5072093;28;882;-57
2021/07/02 04:21:25;;;;;;;;;;;;;;;20.25;80.20;99030.31;5072916;28;799;-57
2021/07/02 04:23:52;;;;;;;;;;;;;;;20.51;78.57;99039.63;5072805;28;802;-58
2021/07/02 04:26:19;;;;;;;;;;;;;;;20.69;78.59;99049.06;5072702;28;979;-57
2021/07/02 04:28:45;;;;;;;;;;;;;;;21.03;76.86;99044.66;5072649;28;803;-57
2021/07/02 04:31:12;;;;;;;;;;;;;;;21.32;77.75;99048.56;5072659;28;823;-57
2021/07/02 04:33:39;;;;;;;;;;;;;;;21.52;73.54;99056.94;5072602;28;866;-57
2021/07/02 04:36:05;;;;;;;;;;;;;;;21.61;72.13;99039.13;5072408;28;1886;-57
2021/07/02 04:38:32;;;;;;;;;;;;;;;21.75;70.46;99043.88;5072550;28;803;-57
2021/07/02 04:40:58;;;;;;;;;;;;;;;22.07;70.44;99048.72;5072339;28;917;-57
2021/07/02 04:43:25;;;;;;;;;;;;;;;22.52;68.71;99049.06;5072471;28;834;-58
2021/07/02 04:45:51;;;;;;;;;;;;;;;22.84;67.80;99055.34;5072353;28;858;-58
2021/07/02 04:48:17;;;;;;;;;;;;;;;22.81;65.50;99045.88;5072263;28;861;-58
2021/07/02 04:50:43;;;;;;;;;;;;;;;22.65;67.16;99057.81;5072410;28;795;-57
2021/07/02 04:53:09;;;;;;;;;;;;;;;22.28;70.28;99052.25;5072258;28;822;-57
2021/07/02 04:55:36;;;;;;;;;;;;;;;22.21;71.24;99071.09;5071983;28;1889;-57
2021/07/02 04:58:06;;;;;;;;;;;;;;;22.16;71.61;99063.38;5072209;28;837;-57
2021/07/02 05:00:32;;;;;;;;;;;;;;;22.16;73.64;99063.38;5072053;28;897;-57
2021/07/02 05:02:59;;;;;;;;;;;;;;;22.36;73.63;99075.81;5072003;28;843;-57
2021/07/02 05:05:26;;;;;;;;;;;;;;;22.65;72.71;99073.97;5054101;28;852;-57
2021/07/02 05:13:02;;;;;;;;;;;;;;;24.73;69.05;99085.63;5761662;22;1538;-57
2021/07/02 05:15:30;;;;;;;;;;;;;;;25.24;64.19;99079.75;5072135;28;1991;-57
2021/07/02 05:17:56;;;;;;;;;;;;;;;25.72;63.67;99072.81;5071885;28;869;-57
2021/07/02 05:20:22;;;;;;;;;;;;;;;25.82;62.50;99064.75;5071867;28;872;-57
2021/07/02 05:22:49;;;;;;;;;;;;;;;25.67;63.37;99076.44;5071811;28;882;-57
2021/07/02 05:25:15;;;;;;;;;;;;;;;25.75;65.42;99066.06;5071788;28;798;-57
2021/07/02 05:27:42;;;;;;;;;;;;;;;25.95;58.97;99061.34;5071699;28;905;-57
2021/07/02 05:30:09;;;;;;;;;;;;;;;25.41;59.08;99059.88;5071685;28;956;-57
2021/07/02 05:32:35;;;;;;;;;;;;;;;25.64;60.94;99061.25;5071778;28;841;-57
2021/07/02 05:35:02;;;;;;;;;;;;;;;26.19;60.78;99064.22;5071560;28;1977;-56
2021/07/02 05:37:29;;;;;;;;;;;;;;;26.68;56.77;99060.66;5071693;28;853;-57
2021/07/02 05:39:56;;;;;;;;;;;;;;;26.41;56.16;99068.88;5071648;28;870;-56
2021/07/02 05:42:24;;;;;;;;;;;;;;;25.93;56.75;99056.22;5071516;28;797;-57
2021/07/02 05:44:51;;;;;;;;;;;;;;;25.53;58.56;99064.19;5071529;28;893;-57
2021/07/02 05:47:17;;;;;;;;;;;;;;;25.36;62.20;99058.63;5071565;28;865;-58
2021/07/02 05:49:44;;;;;;;;;;;;;;;25.87;60.03;99053.38;5071456;28;871;-58
2021/07/02 05:52:10;;;;;;;;;;;;;;;26.10;58.63;99043.97;5071440;28;900;-57
2021/07/02 05:54:37;;;;;;;;;;;;;;;25.80;58.80;99036.22;5071442;28;1890;-57
2021/07/02 05:57:03;;;;;;;;;;;;;;;25.63;59.96;99042.00;5071418;28;857;-57
2021/07/02 05:59:29;;;;;;;;;;;;;;;25.72;58.62;99043.75;5071518;28;989;-56
2021/07/02 06:01:56;;;;;;;;;;;;;;;25.60;58.52;99037.38;5071426;28;909;-57
2021/07/02 06:04:24;;;;;;;;;;;;;;;25.70;59.47;99027.28;5071384;28;942;-58
2021/07/02 06:06:50;;;;;;;;;;;;;;;25.78;58.72;99033.91;5086848;28;1246;-57
2021/07/02 06:09:16;;;;;;;;;;;;;;;26.07;58.19;99042.94;5071423;28;876;-58
2021/07/02 06:11:43;;;;;;;;;;;;;;;26.14;57.12;99039.56;5071198;28;830;-57
2021/07/02 06:14:10;;;;;;;;;;;;;;;26.14;58.05;99038.75;5071252;28;1351;-58
2021/07/02 06:16:36;;;;;;;;;;;;;;;26.76;58.84;99024.75;5071249;28;1910;-57
2021/07/02 06:19:02;;;;;;;;;;;;;;;27.13;56.74;99016.81;5071438;28;925;-57
2021/07/02 06:21:29;;;;;;;;;;;;;;;27.32;56.66;99019.66;5071145;28;909;-57
2021/07/02 06:23:56;;;;;;;;;;;;;;;27.56;55.45;99015.94;5071223;28;954;-57
2021/07/02 06:26:22;;;;;;;;;;;;;;;27.51;55.18;99031.75;5071171;28;774;-57
2021/07/02 06:28:51;;;;;;;;;;;;;;;27.35;53.73;99027.84;5071127;28;921;-57
2021/07/02 06:31:25;;;;;;;;;;;;;;;27.27;56.51;99027.72;5071108;28;845;-57
2021/07/02 06:34:02;;;;;;;;;;;;;;;27.67;56.00;99029.94;5071048;28;920;-57
2021/07/02 06:36:28;;;;;;;;;;;;;;;27.67;53.57;99022.22;5071049;28;1881;-56
2021/07/02 06:51:05;;;;;;;;;;;;;;;27.55;54.11;99000.22;5074948;28;604;-59
2021/07/02 06:53:42;;;;;;;;;;;;;;;27.64;53.27;99011.16;5074625;28;856;-58
2021/07/02 06:56:22;;;;;;;;;;;;;;;27.78;53.25;99007.06;5074470;28;1984;-59
2021/07/02 06:59:31;;;;;;;;;;;;;;;27.56;53.46;98985.47;5074537;28;1209;-58
2021/07/02 07:01:59;;;;;;;;;;;;;;;27.53;52.17;99000.00;5074716;28;802;-59
2021/07/02 07:04:58;;;;;;;;;;;;;;;27.68;53.48;99001.03;5074539;28;806;-59
2021/07/02 07:07:25;;;;;;;;;;;;;;;27.85;52.50;99000.00;5074495;28;800;-60
2021/07/02 07:09:52;;;;;;;;;;;;;;;27.74;53.12;99000.94;5074629;28;840;-60
2021/07/02 07:12:19;;;;;;;;;;;;;;;27.94;52.37;99002.44;5074139;28;1115;-59
2021/07/02 07:14:47;;;;;;;;;;;;;;;27.80;52.01;98987.44;5073819;28;1901;-60
2021/07/02 07:17:14;;;;;;;;;;;;;;;28.04;52.50;99000.72;5074150;28;1301;-59
2021/07/02 07:19:41;;;;;;;;;;;;;;;28.19;51.45;98982.38;5073158;28;853;-60
2021/07/02 07:22:08;;;;;;;;;;;;;;;28.29;52.06;98994.81;5074068;28;898;-59
2021/07/02 07:24:35;;;;;;;;;;;;;;;28.43;51.57;99006.97;5089575;28;1242;-59
2021/07/02 07:27:03;;;;;;;;;;;;;;;28.72;52.27;98999.44;5072744;28;2213;-59
2021/07/02 07:29:29;;;;;;;;;;;;;;;29.09;49.43;99006.94;5073942;28;871;-59
2021/07/02 07:32:01;;;;;;;;;;;;;;;28.94;50.00;98997.44;5074031;28;818;-59
2021/07/02 07:46:41;;;;;;;;;;;;;;;28.92;50.52;98998.75;5073921;28;609;-59
2021/07/02 07:49:13;;;;;;;;;;;;;;;28.90;49.58;99003.47;5073591;28;856;-59
2021/07/02 07:52:00;;;;;;;;;;;;;;;28.67;50.07;99001.06;5073977;28;794;-59
2021/07/02 07:54:27;;;;;;;;;;;;;;;28.86;52.74;99000.19;5073017;28;1894;-59
2021/07/02 07:56:55;;;;;;;;;;;;;;;28.99;52.12;99002.22;5073619;28;821;-59
2021/07/02 07:59:23;;;;;;;;;;;;;;;29.38;49.20;99012.00;5073846;28;888;-59
2021/07/02 08:01:49;;;;;;;;;;;;;;;29.30;51.87;99015.53;5073608;28;834;-60
2021/07/02 08:04:16;;;;;;;;;;;;;;;29.63;48.65;99020.97;5073511;28;1137;-60
2021/07/02 08:06:43;;;;;;;;;;;;;;;29.47;47.59;99020.06;5073328;28;1186;-60
2021/07/02 08:09:10;;;;;;;;;;;;;;;29.00;50.99;99015.16;5073847;28;917;-60
2021/07/02 08:11:37;;;;;;;;;;;;;;;29.38;50.15;99020.53;5073732;28;806;-60
2021/07/02 08:14:06;;;;;;;;;;;;;;;29.53;47.89;99012.13;5073155;28;1321;-60
2021/07/02 08:16:57;;;;;;;;;;;;;;;29.11;50.47;99020.63;5072980;28;1915;-59
2021/07/02 08:19:37;;;;;;;;;;;;;;;29.01;50.76;99022.34;5072827;28;1088;-61
2021/07/02 08:22:06;;;;;;;;;;;;;;;29.80;51.77;99015.66;5072878;28;857;-60
2021/07/02 08:24:36;;;;;;;;;;;;;;;30.10;50.28;99025.78;5073502;28;770;-60
2021/07/02 08:27:08;;;;;;;;;;;;;;;30.39;50.43;99023.00;5072754;28;870;-60
2021/07/02 08:32:49;;;;;;;;;;;;;;;30.88;45.36;99019.31;5072240;28;1035;-61
2021/07/02 08:35:15;;;;;;;;;;;;;;;30.32;48.03;99025.22;5072481;28;1905;-60
2021/07/02 08:37:41;;;;;;;;;;;;;;;30.52;49.68;99023.63;5072656;28;842;-60
2021/07/02 08:43:11;;;;;;;;;;;;;;;30.87;48.30;99026.31;5072351;28;1293;-60
2021/07/02 08:45:38;;;;;;;;;;;;;;;30.52;49.41;99029.34;5072511;28;922;-60
2021/07/02 08:48:07;;;;;;;;;;;;;;;30.22;47.12;99034.81;5072316;28;956;-61
2021/07/02 08:50:34;;;;;;;;;;;;;;;30.32;52.61;99033.00;5072275;28;818;-60
2021/07/02 08:53:02;;;;;;;;;;;;;;;30.25;47.13;99033.69;5072164;28;878;-60
2021/07/02 08:55:29;;;;;;;;;;;;;;;29.87;48.73;99037.75;5072233;28;1890;-60
2021/07/02 08:57:56;;;;;;;;;;;;;;;29.61;48.62;99035.00;5072233;28;857;-60
2021/07/02 09:00:23;;;;;;;;;;;;;;;29.54;49.93;99042.16;5072246;28;885;-60
2021/07/02 09:02:49;;;;;;;;;;;;;;;29.61;47.85;99032.16;5072182;28;829;-60
2021/07/02 09:05:27;;;;;;;;;;;;;;;29.70;48.68;99037.38;5071792;28;852;-60
2021/07/02 09:07:53;;;;;;;;;;;;;;;29.93;50.87;99035.50;5071983;28;955;-60
2021/07/02 09:10:29;;;;;;;;;;;;;;;30.07;49.04;99026.91;5072044;28;877;-60
2021/07/02 09:38:52;;;;;;;;;;;;;;;30.58;53.16;99029.19;5031729;28;646;-60
2021/07/02 09:41:31;;;;;;;;;;;;;;;30.94;52.93;99017.06;5031728;28;865;-60
2021/07/02 09:44:18;;;;;;;;;;;;;;;30.76;49.41;99026.63;5031679;28;868;-61
2021/07/02 09:46:44;;;;;;;;;;;;;;;30.16;49.43;99025.66;5031443;28;1860;-61
2021/07/02 09:49:36;;;;;;;;;;;;;;;29.83;54.02;99025.16;5031793;28;921;-60
2021/07/02 09:52:06;;;;;;;;;;;;;;;29.84;51.94;99016.06;5031663;28;854;-60
2021/07/02 09:54:35;;;;;;;;;;;;;;;29.74;53.54;99012.19;5031728;28;1906;-61
2021/07/02 09:57:19;;;;;;;;;;;;;;;29.24;50.91;99005.59;5031514;28;971;-60
2021/07/02 10:00:02;;;;;;;;;;;;;;;28.87;51.14;99004.56;5031728;28;913;-60
2021/07/02 10:02:28;;;;;;;;;;;;;;;28.81;53.69;99007.53;5031469;28;842;-61
2021/07/02 10:04:58;;;;;;;;;;;;;;;28.74;52.05;99008.16;5031422;28;829;-61
2021/07/02 10:07:26;;;;;;;;;;;;;;;28.47;53.56;99005.31;5031299;28;868;-60
2021/07/02 10:09:52;;;;;;;;;;;;;;;28.44;55.71;99002.81;5031454;28;885;-60
2021/07/02 10:12:23;;;;;;;;;;;;;;;28.63;55.45;99002.72;5031352;28;886;-60
2021/07/02 10:14:50;;;;;;;;;;;;;;;28.62;52.12;99009.72;5031559;28;1981;-61
2021/07/02 10:17:20;;;;;;;;;;;;;;;28.47;53.13;99001.72;5032238;28;791;-60
2021/07/02 10:19:46;;;;;;;;;;;;;;;28.34;51.63;99007.41;5035173;28;906;-60
2021/07/02 10:22:19;;;;;;;;;;;;;;;28.12;53.96;99000.06;5035344;28;846;-61
2021/07/02 10:24:50;;;;;;;;;;;;;;;28.05;53.10;99002.22;5062241;28;1445;-62
2021/07/02 10:27:17;;;;;;;;;;;;;;;28.07;53.36;98993.94;5075150;28;802;-61
2021/07/02 10:29:44;;;;;;;;;;;;;;;28.39;56.03;98995.16;5075046;28;884;-60
2021/07/02 10:32:12;;;;;;;;;;;;;;;28.62;51.53;98990.59;5075117;28;786;-61
2021/07/02 10:34:39;;;;;;;;;;;;;;;28.45;53.94;98992.97;5074877;28;1941;-62
2021/07/02 10:37:06;;;;;;;;;;;;;;;28.49;50.52;98997.06;5074792;28;799;-60
2021/07/02 10:39:35;;;;;;;;;;;;;;;28.37;51.82;99000.63;5074888;28;854;-62
2021/07/02 10:42:05;;;;;;;;;;;;;;;28.17;51.82;98996.38;5074725;28;952;-62
2021/07/02 10:44:32;;;;;;;;;;;;;;;28.17;54.54;98990.69;5074768;28;814;-61
2021/07/02 10:47:03;;;;;;;;;;;;;;;28.38;53.11;98999.31;5074860;28;853;-61
2021/07/02 10:49:36;;;;;;;;;;;;;;;28.54;54.05;99000.34;5074670;28;909;-60
2021/07/02 10:52:22;;;;;;;;;;;;;;;28.95;55.06;99007.50;5074730;28;801;-61
2021/07/02 10:54:49;;;;;;;;;;;;;;;28.94;51.20;99006.72;5073355;28;1902;-60
2021/07/02 10:57:20;;;;;;;;;;;;;;;28.76;49.28;99013.31;5074595;28;806;-61
2021/07/02 10:59:49;;;;;;;;;;;;;;;28.61;52.59;99008.94;5074476;28;801;-61
2021/07/02 11:02:20;;;;;;;;;;;;;;;28.74;52.25;99002.47;5074686;28;926;-61
2021/07/02 11:04:50;;;;;;;;;;;;;;;28.85;52.45;99007.97;5074413;28;794;-61
2021/07/02 11:07:19;;;;;;;;;;;;;;;29.20;53.09;99013.69;5074273;28;842;-60
2021/07/02 11:09:51;;;;;;;;;;;;;;;29.34;51.15;99008.72;5074480;28;869;-61
2021/07/02 11:12:22;;;;;;;;;;;;;;;29.34;51.99;99008.72;5074383;28;1053;-61
2021/07/02 11:14:55;;;;;;;;;;;;;;;29.58;52.16;99010.50;5074306;28;1889;-61
2021/07/02 11:17:25;;;;;;;;;;;;;;;29.56;49.71;99007.44;5074180;28;877;-61
2021/07/02 11:22:35;;;;;;;;;;;;;;;29.76;52.17;99006.69;5073963;28;812;-61
2021/07/02 11:25:03;;;;;;;;;;;;;;;29.92;51.63;99004.75;5073931;28;1487;-61
2021/07/02 11:27:42;;;;;;;;;;;;;;;29.86;50.81;99009.84;5073983;28;806;-60
2021/07/02 11:30:21;;;;;;;;;;;;;;;29.19;53.85;99015.78;5073703;28;806;-60
2021/07/02 11:32:48;;;;;;;;;;;;;;;28.50;54.18;99012.03;5073906;28;857;-61
2021/07/02 11:35:21;;;;;;;;;;;;;;;28.88;52.48;99011.78;5073716;28;1963;-61
2021/07/02 11:38:14;;;;;;;;;;;;;;;29.70;53.25;99014.63;5073834;28;869;-60
2021/07/02 11:40:50;;;;;;;;;;;;;;;29.79;51.46;99019.84;5069231;28;1692;-61
2021/07/02 11:43:33;;;;;;;;;;;;;;;29.48;52.36;99016.66;5073760;28;802;-60
2021/07/02 11:46:01;;;;;;;;;;;;;;;28.77;52.49;99017.69;5073690;28;877;-61
2021/07/02 11:48:29;;;;;;;;;;;;;;;28.83;51.84;99015.50;5073609;28;873;-61
2021/07/02 11:50:56;;;;;;;;;;;;;;;28.18;52.03;99021.38;5073526;28;798;-62
2021/07/02 11:53:42;;;;;;;;;;;;;;;28.39;51.84;99021.50;5072424;28;798;-61
2021/07/02 11:56:18;;;;;;;;;;;;;;;27.91;53.19;99014.88;5073420;28;1885;-61
2021/07/02 11:58:46;;;;;;;;;;;;;;;27.65;53.83;99024.03;5073359;28;869;-60
2021/07/02 12:01:12;;;;;;;;;;;;;;;27.48;53.33;99016.56;5074446;28;755;-61
2021/07/02 12:03:59;;;;;;;;;;;;;;;27.56;55.79;99018.78;5073682;28;771;-61
2021/07/02 12:06:35;;;;;;;;;;;;;;;28.29;54.05;99009.81;5073061;28;1495;-61
2021/07/02 12:09:11;;;;;;;;;;;;;;;28.28;52.15;99018.88;5073233;28;767;-61
2021/07/02 12:11:45;;;;;;;;;;;;;;;29.30;52.58;99024.06;5073047;28;1034;-60
2021/07/02 12:14:15;;;;;;;;;;;;;;;30.50;51.76;99009.19;5073565;28;893;-61
2021/07/02 12:16:42;;;;;;;;;;;;;;;31.28;50.17;99011.06;5072856;28;1886;-60
2021/07/02 12:19:15;;;;;;;;;;;;;;;31.63;45.98;99017.25;5072951;28;877;-61
2021/07/02 12:21:49;;;;;;;;;;;;;;;31.59;47.43;99018.97;5072937;28;905;-61
2021/07/02 12:24:18;;;;;;;;;;;;;;;31.59;45.16;99007.53;5072711;28;1454;-61
2021/07/02 12:26:49;;;;;;;;;;;;;;;30.77;44.95;99014.66;5072850;28;842;-62
2021/07/02 12:29:16;;;;;;;;;;;;;;;30.47;47.76;99006.69;5072894;28;869;-60
2021/07/02 12:31:44;;;;;;;;;;;;;;;30.89;46.74;99007.31;5072984;28;834;-61
2021/07/02 12:34:15;;;;;;;;;;;;;;;30.89;43.93;99009.41;5072971;28;858;-61
2021/07/02 12:37:00;;;;;;;;;;;;;;;30.43;46.74;98998.50;5072484;28;1914;-61
2021/07/02 12:39:30;;;;;;;;;;;;;;;30.85;47.19;99003.28;5072381;28;897;-61
2021/07/02 12:42:01;;;;;;;;;;;;;;;31.22;46.44;99004.03;5072167;28;936;-61
2021/07/02 12:44:28;;;;;;;;;;;;;;;31.67;45.72;98996.91;5072446;28;802;-62
2021/07/02 12:46:55;;;;;;;;;;;;;;;31.76;45.13;99001.28;5072521;28;801;-61
2021/07/02 12:49:21;;;;;;;;;;;;;;;32.28;46.35;99004.72;5072656;28;821;-61
2021/07/02 12:54:47;;;;;;;;;;;;;;;32.94;45.04;99002.81;5063834;28;1882;-61
2021/07/02 12:57:15;;;;;;;;;;;;;;;32.94;44.26;99009.31;5072367;28;857;-61
2021/07/02 12:59:48;;;;;;;;;;;;;;;32.84;44.19;99011.28;5072214;28;797;-61
2021/07/02 13:02:33;;;;;;;;;;;;;;;33.14;43.43;99012.50;5072273;28;794;-61
2021/07/02 13:05:03;;;;;;;;;;;;;;;32.52;41.93;99006.97;5071959;28;940;-61
2021/07/02 13:07:50;;;;;;;;;;;;;;;32.29;43.75;99017.69;5071993;28;897;-61
2021/07/02 13:10:20;;;;;;;;;;;;;;;32.60;43.21;99023.34;5071898;28;1728;-62
2021/07/02 13:13:03;;;;;;;;;;;;;;;32.67;44.03;99029.06;5072124;28;978;-61
2021/07/02 13:15:31;;;;;;;;;;;;;;;32.82;43.06;99039.69;5071857;28;1890;-61
2021/07/02 13:17:57;;;;;;;;;;;;;;;32.54;43.67;99026.44;5071896;28;912;-62
2021/07/02 13:20:41;;;;;;;;;;;;;;;32.24;41.66;99039.41;5071782;28;918;-62
2021/07/02 13:23:08;;;;;;;;;;;;;;;32.13;44.14;99023.41;5071899;28;1138;-61
2021/07/02 13:25:34;;;;;;;;;;;;;;;32.32;43.61;99037.28;5071859;28;1312;-62
2021/07/02 13:28:01;;;;;;;;;;;;;;;32.31;43.61;99032.91;5071972;28;853;-62
2021/07/02 13:30:32;;;;;;;;;;;;;;;32.08;42.27;99026.47;5071960;28;829;-60
2021/07/02 13:33:09;;;;;;;;;;;;;;;31.87;43.99;99026.63;5071701;28;877;-62
2021/07/02 13:35:36;;;;;;;;;;;;;;;31.66;43.41;99026.78;5071535;28;1979;-61
2021/07/02 13:38:07;;;;;;;;;;;;;;;31.92;43.53;99029.28;5071890;28;885;-62
2021/07/02 13:40:38;;;;;;;;;;;;;;;32.04;43.12;99023.97;5071628;28;996;-61
2021/07/02 13:43:06;;;;;;;;;;;;;;;32.02;42.47;99020.16;5071715;28;873;-61
2021/07/02 13:45:33;;;;;;;;;;;;;;;32.40;44.16;99020.13;5071640;28;860;-60
2021/07/02 13:48:11;;;;;;;;;;;;;;;32.44;43.26;99025.47;5071518;28;901;-60
2021/07/02 13:50:41;;;;;;;;;;;;;;;32.14;41.98;99022.06;5071466;28;881;-59
2021/07/02 13:53:15;;;;;;;;;;;;;;;31.90;43.02;99014.81;5070563;28;889;-59
2021/07/02 13:55:42;;;;;;;;;;;;;;;32.12;43.51;99024.72;5071336;28;1943;-61
2021/07/02 13:58:09;;;;;;;;;;;;;;;31.91;42.35;99021.28;5071516;28;818;-61
2021/07/02 14:00:37;;;;;;;;;;;;;;;31.88;42.99;99023.19;5071412;28;862;-58
2021/07/02 14:03:03;;;;;;;;;;;;;;;32.13;43.66;99017.69;5071454;28;977;-61
2021/07/02 14:05:30;;;;;;;;;;;;;;;32.23;42.56;99019.97;5071406;28;897;-59
2021/07/02 14:07:57;;;;;;;;;;;;;;;32.25;42.89;99015.19;5071580;28;870;-61
2021/07/02 14:10:23;;;;;;;;;;;;;;;32.30;42.06;99010.63;5071387;28;917;-61
2021/07/02 14:12:50;;;;;;;;;;;;;;;32.14;43.39;99013.50;5071496;28;864;-60
2021/07/02 14:15:16;;;;;;;;;;;;;;;32.27;42.72;99018.25;5071369;28;1925;-60
2021/07/02 14:17:43;;;;;;;;;;;;;;;31.93;41.25;99016.50;5071492;28;922;-61
2021/07/02 14:20:09;;;;;;;;;;;;;;;31.68;42.92;99012.69;5071529;28;1032;-61
2021/07/02 14:22:37;;;;;;;;;;;;;;;31.41;42.71;99010.16;5071642;28;1097;-61